createdAt,value
2019-06-07T00:00:38.684Z,98.80
2019-06-07T00:03:05.319Z,98.80
2019-06-07T00:05:35.707Z,98.70
2019-06-07T00:08:09.704Z,98.90
2019-06-07T00:10:39.074Z,98.90
2019-06-07T00:13:17.104Z,99.20
2019-06-07T00:15:46.315Z,98.90
2019-06-07T00:18:20.933Z,98.50
2019-06-07T00:20:46.733Z,98.30
2019-06-07T00:23:22.134Z,98.20
2019-06-07T00:25:46.511Z,97.80
2019-06-07T00:28:17.367Z,97.90
2019-06-07T00:30:52.168Z,98.10
2019-06-07T00:33:24.366Z,97.90
2019-06-07T00:35:51.602Z,97.80
2019-06-07T00:38:22.083Z,98.10
2019-06-07T00:40:55.092Z,98.10
2019-06-07T00:43:28.594Z,98.20
2019-06-07T00:45:56.833Z,98.40
2019-06-07T00:48:32.342Z,98.60
2019-06-07T00:50:59.116Z,98.80
2019-06-07T00:53:32.344Z,98.70
2019-06-07T00:56:00.133Z,98.80
2019-06-07T00:58:31.433Z,98.70
2019-06-07T01:01:01.774Z,98.80
2019-06-07T01:03:33.097Z,99.00
2019-06-07T01:06:06.913Z,98.70
2019-06-07T01:08:35.023Z,98.60
2019-06-07T01:11:07.646Z,98.50
2019-06-07T01:13:36.754Z,98.30
2019-06-07T01:16:07.000Z,98.00
2019-06-07T01:18:45.578Z,98.30
2019-06-07T01:21:09.173Z,98.00
2019-06-07T01:26:10.962Z,97.90
2019-06-07T01:28:44.417Z,97.60
2019-06-07T01:31:20.306Z,97.10
2019-06-07T01:33:51.295Z,96.50
2019-06-07T01:36:22.392Z,95.60
2019-06-07T01:38:53.066Z,95.80
2019-06-07T01:41:27.343Z,95.60
2019-06-07T01:43:54.249Z,95.70
2019-06-07T01:46:25.472Z,95.50
2019-06-07T01:48:53.928Z,95.70
2019-06-07T01:51:24.447Z,96.00
2019-06-07T01:54:41.241Z,96.20
2019-06-07T01:56:29.243Z,96.10
2019-06-07T01:59:00.351Z,96.10
2019-06-07T02:01:34.689Z,95.70
2019-06-07T02:04:00.112Z,95.60
2019-06-07T02:06:34.316Z,95.60
2019-06-07T02:09:07.019Z,95.50
2019-06-07T02:11:38.118Z,94.90
2019-06-07T02:14:07.275Z,94.80
2019-06-07T02:16:37.198Z,95.20
2019-06-07T02:19:05.970Z,95.10
2019-06-07T02:21:34.954Z,94.90
2019-06-07T02:24:05.175Z,94.80
2019-06-07T02:26:37.958Z,95.00
2019-06-07T02:29:06.794Z,94.60
2019-06-07T02:31:40.339Z,94.90
2019-06-07T02:34:09.910Z,95.20
2019-06-07T02:36:43.295Z,94.90
2019-06-07T02:39:15.969Z,95.10
2019-06-07T02:41:45.191Z,94.90
2019-06-07T02:44:16.937Z,94.70
2019-06-07T02:46:49.933Z,94.40
2019-06-07T02:49:25.216Z,94.40
2019-06-07T02:51:53.047Z,94.20
2019-06-07T02:54:23.964Z,94.30
2019-06-07T02:56:58.714Z,94.30
2019-06-07T02:59:48.484Z,94.30
2019-06-07T03:01:54.998Z,94.50
2019-06-07T03:04:28.570Z,94.60
2019-06-07T03:07:00.808Z,94.60
2019-06-07T03:09:34.404Z,94.60
2019-06-07T03:12:14.985Z,94.90
2019-06-07T03:14:44.505Z,94.90
2019-06-07T03:17:23.643Z,95.00
2019-06-07T03:20:04.505Z,94.90
2019-06-07T03:22:39.852Z,95.00
2019-06-07T03:25:12.017Z,95.20
2019-06-07T03:27:50.043Z,95.50
2019-06-07T03:32:52.203Z,94.70
2019-06-07T03:35:22.096Z,94.80
2019-06-07T03:37:58.591Z,94.70
2019-06-07T03:40:27.334Z,94.80
2019-06-07T03:42:57.705Z,94.70
2019-06-07T03:45:29.000Z,94.70
2019-06-07T03:47:58.738Z,94.50
2019-06-07T03:50:35.928Z,94.50
2019-06-07T03:53:05.661Z,94.60
2019-06-07T03:56:19.644Z,94.50
2019-06-07T03:59:06.100Z,94.40
2019-06-07T04:01:37.242Z,94.60
2019-06-07T04:04:07.143Z,94.60
2019-06-07T04:06:42.824Z,94.70
2019-06-07T04:09:17.364Z,95.00
2019-06-07T04:11:47.994Z,94.90
2019-06-07T04:14:21.126Z,94.70
2019-06-07T04:16:51.349Z,94.40
2019-06-07T04:19:23.175Z,94.20
2019-06-07T04:21:51.958Z,94.20
2019-06-07T04:24:23.020Z,94.30
2019-06-07T04:26:51.736Z,94.00
2019-06-07T04:29:33.039Z,94.20
2019-06-07T04:31:58.831Z,94.30
2019-06-07T04:34:29.162Z,94.00
2019-06-07T04:36:59.669Z,93.90
2019-06-07T04:39:31.316Z,93.70
2019-06-07T04:42:00.994Z,93.50
2019-06-07T04:44:34.959Z,93.70
2019-06-07T04:47:06.455Z,93.60
2019-06-07T04:49:41.762Z,93.50
2019-06-07T04:52:08.586Z,93.20
2019-06-07T04:54:45.584Z,92.70
2019-06-07T04:57:14.775Z,92.80
2019-06-07T05:02:17.574Z,92.90
2019-06-07T05:04:46.009Z,93.20
2019-06-07T05:07:14.776Z,93.30
2019-06-07T05:09:43.571Z,93.40
2019-06-07T05:12:15.952Z,93.50
2019-06-07T05:14:49.030Z,93.20
2019-06-07T05:17:20.972Z,93.10
2019-06-07T05:19:49.781Z,93.30
2019-06-07T05:22:21.229Z,93.20
2019-06-07T05:24:49.988Z,93.00
2019-06-07T05:27:19.021Z,92.90
2019-06-07T05:30:08.777Z,92.90
2019-06-07T05:32:18.678Z,93.00
2019-06-07T05:34:49.185Z,92.90
2019-06-07T05:37:25.203Z,92.70
2019-06-07T05:42:58.909Z,92.80
2019-06-07T05:45:39.272Z,93.00
2019-06-07T05:48:08.688Z,93.10
2019-06-07T05:50:48.618Z,93.10
2019-06-07T05:53:10.703Z,92.60
2019-06-07T05:55:47.114Z,92.50
2019-06-07T05:58:17.411Z,92.60
2019-06-07T06:00:47.434Z,92.50
2019-06-07T06:03:19.267Z,92.20
2019-06-07T06:05:55.036Z,92.00
2019-06-07T06:08:20.934Z,92.10
2019-06-07T06:10:49.748Z,91.90
2019-06-07T06:13:18.438Z,91.60
2019-06-07T06:16:00.682Z,91.10
2019-06-07T06:18:19.477Z,91.40
2019-06-07T06:21:18.919Z,91.50
2019-06-07T06:23:20.786Z,91.30
2019-06-07T06:25:56.494Z,91.10
2019-06-07T06:28:20.646Z,90.80
2019-06-07T06:30:51.973Z,90.50
2019-06-07T06:33:33.826Z,90.40
2019-06-07T06:35:55.223Z,90.60
2019-06-07T06:38:27.406Z,90.90
2019-06-07T06:41:15.104Z,90.70
2019-06-07T06:43:30.755Z,90.40
2019-06-07T06:45:59.522Z,90.40
2019-06-07T06:48:28.190Z,90.40
2019-06-07T06:50:56.981Z,90.40
2019-06-07T06:53:28.248Z,90.50
2019-06-07T06:55:56.848Z,90.70
2019-06-07T06:59:12.195Z,90.60
2019-06-07T07:01:06.623Z,90.40
2019-06-07T07:03:57.146Z,90.40
2019-06-07T07:06:25.360Z,90.20
2019-06-07T07:08:43.626Z,90.20
2019-06-07T07:11:12.158Z,90.10
2019-06-07T07:13:45.341Z,90.50
2019-06-07T07:16:16.777Z,90.50
2019-06-07T07:18:49.729Z,90.40
2019-06-07T07:21:16.418Z,90.40
2019-06-07T07:24:08.242Z,90.30
2019-06-07T07:26:15.853Z,90.20
2019-06-07T07:28:46.540Z,90.20
2019-06-07T07:31:16.448Z,90.40
2019-06-07T07:36:38.244Z,89.20
2019-06-07T07:39:00.463Z,88.00
2019-06-07T07:41:19.658Z,88.50
2019-06-07T07:43:59.377Z,87.40
2019-06-07T07:46:29.798Z,86.40
2019-06-07T07:48:56.907Z,85.10
2019-06-07T07:51:25.902Z,84.50
2019-06-07T07:54:09.156Z,84.10
2019-06-07T07:56:25.086Z,84.70
2019-06-07T07:59:01.778Z,83.70
2019-06-07T08:01:27.111Z,83.50
2019-06-07T08:03:58.732Z,83.70
2019-06-07T08:06:27.487Z,82.90
2019-06-07T08:08:59.007Z,84.50
2019-06-07T08:11:30.982Z,83.60
2019-06-07T08:14:00.477Z,82.40
2019-06-07T08:16:33.678Z,82.10
2019-06-07T08:19:04.760Z,83.10
2019-06-07T08:21:36.760Z,82.50
2019-06-07T08:24:05.667Z,82.50
2019-06-07T08:26:36.261Z,82.70
2019-06-07T08:29:05.089Z,82.00
2019-06-07T08:31:36.572Z,80.90
2019-06-07T08:34:06.678Z,80.10
2019-06-07T08:36:42.441Z,80.40
2019-06-07T08:39:11.077Z,77.90
2019-06-07T08:41:53.932Z,79.00
2019-06-07T08:47:16.726Z,79.90
2019-06-07T08:49:33.055Z,78.60
2019-06-07T08:52:11.519Z,79.00
2019-06-07T08:54:35.781Z,79.90
2019-06-07T08:57:20.055Z,78.10
2019-06-07T08:59:40.338Z,74.60
2019-06-07T09:02:22.886Z,74.20
2019-06-07T09:04:43.176Z,74.90
2019-06-07T09:07:19.557Z,73.60
2019-06-07T09:09:46.211Z,71.90
2019-06-07T09:12:14.982Z,72.40
2019-06-07T09:14:59.556Z,73.30
2019-06-07T09:17:14.070Z,72.70
2019-06-07T09:19:43.322Z,72.40
2019-06-07T09:22:12.734Z,73.70
2019-06-07T09:24:41.485Z,71.30
2019-06-07T09:27:10.629Z,72.10
2019-06-07T09:29:41.410Z,72.20
2019-06-07T09:32:16.333Z,71.40
2019-06-07T09:34:43.224Z,67.30
2019-06-07T09:38:02.353Z,64.20
2019-06-07T09:39:47.801Z,65.00
2019-06-07T09:42:18.048Z,63.60
2019-06-07T09:44:47.961Z,63.60
2019-06-07T09:47:31.339Z,62.20
2019-06-07T09:49:52.205Z,60.10
2019-06-07T09:52:20.964Z,62.40
2019-06-07T09:55:20.618Z,61.90
2019-06-07T09:57:20.774Z,59.50
2019-06-07T09:59:51.080Z,58.70
2019-06-07T10:02:22.446Z,56.40
2019-06-07T10:04:51.044Z,56.00
2019-06-07T10:07:31.405Z,55.50
2019-06-07T10:10:19.284Z,55.80
2019-06-07T10:12:32.536Z,56.10
2019-06-07T10:15:01.128Z,56.00
2019-06-07T10:17:33.444Z,53.70
2019-06-07T10:20:05.778Z,52.10
2019-06-07T10:22:35.690Z,53.40
2019-06-07T10:25:06.361Z,54.10
2019-06-07T10:27:38.366Z,52.00
2019-06-07T10:30:10.694Z,49.50
2019-06-07T10:32:43.111Z,45.60
2019-06-07T10:35:16.338Z,45.10
2019-06-07T10:37:43.300Z,46.00
2019-06-07T10:40:12.153Z,46.10
2019-06-07T10:42:42.465Z,45.40
2019-06-07T10:45:12.573Z,43.90
2019-06-07T10:47:41.938Z,46.10
2019-06-07T10:50:12.245Z,46.50
2019-06-07T10:52:41.084Z,47.00
2019-06-07T10:55:10.697Z,48.10
2019-06-07T10:57:42.291Z,49.20
2019-06-07T11:00:14.278Z,49.80
2019-06-07T11:02:44.542Z,49.00
2019-06-07T11:05:17.804Z,48.50
2019-06-07T11:07:50.351Z,48.70
2019-06-07T11:10:25.358Z,48.00
2019-06-07T11:12:56.699Z,48.40
2019-06-07T11:15:25.739Z,46.70
2019-06-07T11:18:06.230Z,45.40
2019-06-07T11:20:37.114Z,43.10
2019-06-07T11:23:08.230Z,43.80
2019-06-07T11:25:37.456Z,43.90
2019-06-07T11:28:08.398Z,41.20
2019-06-07T11:30:44.477Z,41.10
2019-06-07T11:33:15.747Z,44.00
2019-06-07T11:35:48.784Z,44.10
2019-06-07T11:38:18.719Z,43.00
2019-06-07T11:40:49.370Z,43.40
2019-06-07T11:43:21.171Z,43.70
2019-06-07T11:45:55.362Z,43.90
2019-06-07T11:48:28.436Z,42.60
2019-06-07T11:50:56.688Z,41.60
2019-06-07T11:53:26.222Z,38.30
2019-06-07T11:56:00.603Z,37.30
2019-06-07T11:58:29.405Z,36.70
2019-06-07T12:00:58.080Z,36.90
2019-06-07T12:03:30.027Z,36.40
2019-06-07T12:05:58.712Z,37.30
2019-06-07T12:08:28.430Z,36.30
2019-06-07T12:10:57.173Z,33.80
2019-06-07T12:13:27.016Z,33.80
2019-06-07T12:15:59.011Z,34.80
2019-06-07T12:18:31.240Z,36.50
2019-06-07T12:21:00.264Z,35.80
2019-06-07T12:23:30.106Z,35.40
2019-06-07T12:26:05.411Z,36.10
2019-06-07T12:28:35.590Z,35.20
2019-06-07T12:31:04.282Z,35.10
2019-06-07T12:33:35.023Z,33.30
2019-06-07T12:36:05.066Z,33.10
2019-06-07T12:38:44.369Z,31.30
2019-06-07T12:41:16.349Z,30.40
2019-06-07T12:43:46.570Z,30.20
2019-06-07T12:46:21.027Z,32.30
2019-06-07T12:48:45.670Z,31.20
2019-06-07T12:51:19.323Z,31.90
2019-06-07T12:53:48.677Z,32.70
2019-06-07T12:56:17.765Z,32.10
2019-06-07T12:58:49.138Z,31.70
2019-06-07T13:01:18.307Z,29.50
2019-06-07T13:03:48.440Z,29.60
2019-06-07T13:06:17.758Z,29.70
2019-06-07T13:08:47.684Z,28.80
2019-06-07T13:11:24.530Z,28.70
2019-06-07T13:13:49.508Z,28.00
2019-06-07T13:16:18.413Z,29.70
2019-06-07T13:18:47.446Z,28.70
2019-06-07T13:21:16.294Z,29.50
2019-06-07T13:23:45.106Z,29.40
2019-06-07T13:26:16.744Z,29.50
2019-06-07T13:28:47.287Z,30.10
2019-06-07T13:31:18.760Z,29.10
2019-06-07T13:33:50.619Z,28.80
2019-06-07T13:36:22.298Z,28.20
2019-06-07T13:38:54.055Z,27.90
2019-06-07T13:41:36.760Z,28.40
2019-06-07T13:43:54.703Z,29.00
2019-06-07T13:46:25.419Z,29.80
2019-06-07T13:49:00.376Z,28.80
2019-06-07T13:51:35.132Z,27.50
2019-06-07T13:54:01.682Z,28.50
2019-06-07T13:56:30.697Z,29.10
2019-06-07T13:59:01.099Z,27.80
2019-06-07T14:01:31.328Z,28.40
2019-06-07T14:04:01.646Z,28.30
2019-06-07T14:06:33.953Z,28.10
2019-06-07T14:09:04.933Z,28.20
2019-06-07T14:11:49.368Z,27.90
2019-06-07T14:14:09.165Z,28.60
2019-06-07T14:16:38.697Z,28.10
2019-06-07T14:19:07.393Z,27.80
2019-06-07T14:21:41.278Z,27.80
2019-06-07T14:24:14.266Z,28.90
2019-06-07T14:26:46.615Z,27.80
2019-06-07T14:29:16.782Z,27.80
2019-06-07T14:31:45.743Z,28.20
2019-06-07T14:34:17.074Z,28.60
2019-06-07T14:36:54.329Z,27.80
2019-06-07T14:39:22.958Z,27.30
2019-06-07T14:42:08.445Z,27.60
2019-06-07T14:44:37.893Z,27.50
2019-06-07T14:47:07.621Z,27.60
2019-06-07T14:49:41.602Z,25.70
2019-06-07T14:52:26.343Z,26.20
2019-06-07T14:54:55.109Z,26.30
2019-06-07T14:57:26.958Z,27.50
2019-06-07T14:59:55.677Z,27.20
2019-06-07T15:02:28.292Z,26.70
2019-06-07T15:04:59.661Z,27.60
2019-06-07T15:07:28.694Z,27.70
2019-06-07T15:09:57.503Z,27.20
2019-06-07T15:12:29.223Z,27.20
2019-06-07T15:14:58.365Z,27.10
2019-06-07T15:17:28.200Z,26.70
2019-06-07T15:20:03.051Z,25.60
2019-06-07T15:22:32.514Z,26.00
2019-06-07T15:25:01.285Z,25.50
2019-06-07T15:27:31.258Z,24.40
2019-06-07T15:30:09.535Z,23.50
2019-06-07T15:32:35.208Z,24.50
2019-06-07T15:35:02.357Z,24.70
2019-06-07T15:37:34.586Z,25.20
2019-06-07T15:40:04.210Z,25.20
2019-06-07T15:42:46.152Z,24.90
2019-06-07T15:45:04.587Z,24.20
2019-06-07T15:47:36.203Z,24.50
2019-06-07T15:50:09.586Z,24.80
2019-06-07T15:52:42.576Z,24.50
2019-06-07T15:55:12.768Z,25.30
2019-06-07T15:57:44.211Z,25.70
2019-06-07T16:00:14.654Z,25.30
2019-06-07T16:02:46.256Z,24.60
2019-06-07T16:05:16.875Z,25.20
2019-06-07T16:07:48.658Z,26.00
2019-06-07T16:10:21.803Z,25.80
2019-06-07T16:13:00.611Z,26.00
2019-06-07T16:15:27.801Z,26.50
2019-06-07T16:17:57.505Z,27.00
2019-06-07T16:20:26.270Z,26.90
2019-06-07T16:22:55.019Z,26.90
2019-06-07T16:25:26.393Z,27.00
2019-06-07T16:27:58.830Z,27.70
2019-06-07T16:30:28.730Z,28.10
2019-06-07T16:33:03.194Z,29.20
2019-06-07T16:35:32.881Z,30.00
2019-06-07T16:38:03.141Z,31.40
2019-06-07T16:40:32.034Z,32.50
2019-06-07T16:43:16.966Z,34.20
2019-06-07T16:45:38.677Z,34.80
2019-06-07T16:48:08.687Z,34.70
2019-06-07T16:50:40.919Z,34.80
2019-06-07T16:53:09.737Z,35.80
2019-06-07T16:55:40.811Z,35.80
2019-06-07T16:58:08.921Z,37.10
2019-06-07T17:00:38.674Z,37.50
2019-06-07T17:03:08.866Z,37.10
2019-06-07T17:05:37.801Z,37.60
2019-06-07T17:08:07.491Z,37.90
2019-06-07T17:10:36.306Z,38.80
2019-06-07T17:13:06.377Z,39.40
2019-06-07T17:15:38.633Z,38.90
2019-06-07T17:18:07.424Z,39.10
2019-06-07T17:20:41.074Z,38.20
2019-06-07T17:23:10.804Z,37.90
2019-06-07T17:25:41.411Z,42.90
2019-06-07T17:28:10.297Z,43.80
2019-06-07T17:30:41.789Z,45.30
2019-06-07T17:33:10.583Z,47.00
2019-06-07T17:35:40.116Z,47.70
2019-06-07T17:38:10.443Z,48.00
2019-06-07T17:40:40.717Z,48.30
2019-06-07T17:43:11.314Z,48.90
2019-06-07T17:45:41.266Z,49.30
2019-06-07T17:48:10.429Z,49.70
2019-06-07T17:50:39.188Z,49.50
2019-06-07T17:53:07.953Z,49.60
2019-06-07T17:55:40.306Z,49.50
2019-06-07T17:58:11.840Z,50.00
2019-06-07T18:00:52.907Z,50.30
2019-06-07T18:03:23.275Z,50.90
2019-06-07T18:05:55.370Z,51.70
2019-06-07T18:08:27.706Z,52.30
2019-06-07T18:10:59.290Z,53.00
2019-06-07T18:13:29.203Z,53.60
2019-06-07T18:15:59.848Z,54.40
2019-06-07T18:18:32.849Z,56.20
2019-06-07T18:21:01.685Z,56.90
2019-06-07T18:23:34.478Z,58.40
2019-06-07T18:26:04.738Z,59.20
2019-06-07T18:28:35.347Z,60.40
2019-06-07T18:31:04.385Z,61.70
2019-06-07T18:33:34.486Z,62.10
2019-06-07T18:36:04.383Z,62.90
2019-06-07T18:38:35.698Z,63.00
2019-06-07T18:41:04.575Z,63.20
2019-06-07T18:43:33.126Z,63.70
2019-06-07T18:46:03.343Z,64.10
2019-06-07T18:48:33.136Z,63.70
2019-06-07T18:51:05.826Z,64.20
2019-06-07T18:53:36.573Z,64.10
2019-06-07T18:56:09.580Z,63.30
2019-06-07T18:58:38.728Z,64.00
2019-06-07T19:01:08.868Z,63.90
2019-06-07T19:03:38.903Z,63.40
2019-06-07T19:06:07.557Z,62.90
2019-06-07T19:08:38.340Z,62.80
2019-06-07T19:11:07.056Z,62.10
2019-06-07T19:13:40.132Z,62.50
2019-06-07T19:16:08.781Z,62.40
2019-06-07T19:18:38.128Z,62.40
2019-06-07T19:21:11.815Z,63.60
2019-06-07T19:23:38.583Z,65.50
2019-06-07T19:26:07.330Z,66.90
2019-06-07T19:28:37.843Z,66.60
2019-06-07T19:31:08.199Z,66.50
2019-06-07T19:33:48.795Z,67.10
2019-06-07T19:36:10.285Z,66.10
2019-06-07T19:38:39.246Z,66.60
2019-06-07T19:41:19.406Z,67.10
2019-06-07T19:44:09.952Z,66.60
2019-06-07T19:46:38.622Z,66.10
2019-06-07T19:49:09.100Z,65.90
2019-06-07T19:51:39.414Z,65.50
2019-06-07T19:54:11.442Z,65.50
2019-06-07T19:56:43.757Z,64.90
2019-06-07T19:59:26.324Z,64.60
2019-06-07T20:01:57.890Z,64.80
2019-06-07T20:04:26.621Z,65.00
2019-06-07T20:06:56.262Z,65.50
2019-06-07T20:09:26.441Z,65.40
2019-06-07T20:11:58.467Z,65.50
2019-06-07T20:14:30.376Z,64.90
2019-06-07T20:17:01.655Z,64.40
2019-06-07T20:19:30.714Z,64.40
2019-06-07T20:22:01.084Z,64.10
2019-06-07T20:24:33.459Z,64.70
2019-06-07T20:27:05.871Z,65.00
2019-06-07T20:29:34.539Z,65.60
2019-06-07T20:32:05.926Z,66.00
2019-06-07T20:34:34.666Z,65.90
2019-06-07T20:37:07.738Z,66.10
2019-06-07T20:39:40.097Z,66.20
2019-06-07T20:42:10.447Z,66.00
2019-06-07T20:44:39.346Z,65.60
2019-06-07T20:47:09.811Z,65.90
2019-06-07T20:49:39.019Z,65.50
2019-06-07T20:52:10.867Z,65.90
2019-06-07T20:54:44.396Z,66.20
2019-06-07T20:57:14.375Z,66.20
2019-06-07T20:59:43.136Z,65.80
2019-06-07T21:02:13.151Z,65.10
2019-06-07T21:04:46.664Z,65.70
2019-06-07T21:07:15.041Z,65.90
2019-06-07T21:09:52.556Z,65.60
2019-06-07T21:12:21.347Z,66.30
2019-06-07T21:14:53.479Z,66.30
2019-06-07T21:17:22.142Z,67.00
2019-06-07T21:19:52.371Z,67.80
2019-06-07T21:22:21.186Z,68.50
2019-06-07T21:24:51.132Z,68.90
2019-06-07T21:27:19.790Z,69.80
2019-06-07T21:29:49.765Z,70.10
2019-06-07T21:32:20.452Z,70.60
2019-06-07T21:34:59.992Z,70.70
2019-06-07T21:37:34.835Z,71.20
2019-06-07T21:40:10.192Z,72.30
2019-06-07T21:42:39.695Z,72.90
2019-06-07T21:45:11.805Z,73.10
2019-06-07T21:47:41.375Z,73.60
2019-06-07T21:50:10.784Z,74.40
2019-06-07T21:52:39.763Z,74.80
2019-06-07T21:55:09.239Z,75.00
2019-06-07T21:57:39.489Z,74.60
2019-06-07T22:00:13.489Z,74.40
2019-06-07T22:02:46.614Z,74.40
2019-06-07T22:05:15.613Z,74.10
2019-06-07T22:07:44.430Z,73.60
2019-06-07T22:10:15.422Z,73.30
2019-06-07T22:12:48.167Z,73.20
2019-06-07T22:15:30.938Z,73.70
2019-06-07T22:17:59.753Z,74.10
2019-06-07T22:20:31.818Z,73.80
2019-06-07T22:23:12.716Z,74.10
2019-06-07T22:25:40.000Z,74.20
2019-06-07T22:28:10.463Z,74.20
2019-06-07T22:30:42.928Z,74.00
2019-06-07T22:33:13.337Z,73.80
2019-06-07T22:35:43.326Z,73.60
2019-06-07T22:38:14.886Z,73.80
2019-06-07T22:40:43.602Z,73.30
2019-06-07T22:43:16.001Z,73.60
2019-06-07T22:45:44.275Z,73.40
2019-06-07T22:48:13.442Z,73.90
2019-06-07T22:50:43.763Z,74.30
2019-06-07T22:53:17.721Z,74.50
2019-06-07T22:55:50.709Z,74.50
2019-06-07T22:58:21.083Z,74.20
2019-06-07T23:00:50.144Z,74.10
2019-06-07T23:03:19.811Z,74.30
2019-06-07T23:05:48.485Z,74.10
2019-06-07T23:08:19.129Z,73.50
2019-06-07T23:10:50.991Z,72.60
2019-06-07T23:13:22.755Z,72.90
2019-06-07T23:15:54.267Z,72.90
2019-06-07T23:18:25.473Z,73.30
2019-06-07T23:21:01.677Z,73.70
2019-06-07T23:23:30.386Z,74.10
2019-06-07T23:26:00.558Z,74.80
2019-06-07T23:28:29.213Z,75.20
2019-06-07T23:30:59.581Z,75.90
2019-06-07T23:33:33.459Z,76.40
2019-06-07T23:36:04.313Z,76.80
2019-06-07T23:38:34.519Z,77.10
2019-06-07T23:41:03.185Z,77.40
2019-06-07T23:43:35.240Z,77.60
2019-06-07T23:46:08.750Z,77.80
2019-06-07T23:48:37.471Z,78.10
2019-06-07T23:51:06.170Z,78.40
2019-06-07T23:53:37.591Z,78.70
2019-06-07T23:56:06.329Z,79.10
2019-06-07T23:58:35.061Z,79.30
